Terminal Aerodrome Forecast
Issued by NWS

Home | Current Version | Previous Version | Text Only | Print | Product List | Glossary On
Versions: 1 2 3 4 5 6 7 8 9 10 11 12
000
FTUS42 TJSJ 260520
TAFJMZ
TAF
TJMZ 260520Z 2606/2706 06003KT P6SM FEW035 FEW060
     FM260900 00000KT P6SM SKC
     FM261500 29010KT P6SM VCSH FEW025 SCT060
      AMD NOT SKED=

USA.gov is the U.S. government's official web portal to all federal, state and local government web resources and services.